sensor_id;sensor_type;location;lat;lon;timestamp;pressure;altitude;pressure_sealevel;temperature;humidity
29549;BME280;16487;53.094;8.800;2023-03-02T00:01:15;102546.22;;;1.36;100.00
29549;BME280;16487;53.094;8.800;2023-03-02T00:03:42;102542.47;;;1.40;100.00
29549;BME280;16487;53.094;8.800;2023-03-02T00:06:09;102533.91;;;1.21;100.00
29549;BME280;16487;53.094;8.800;2023-03-02T00:08:38;102519.63;;;1.28;100.00
29549;BME280;16487;53.094;8.800;2023-03-02T00:11:06;102510.50;;;1.36;100.00
29549;BME280;16487;53.094;8.800;2023-03-02T00:13:34;102503.56;;;1.38;100.00
29549;BME280;16487;53.094;8.800;2023-03-02T00:16:03;102522.66;;;1.35;100.00
29549;BME280;16487;53.094;8.800;2023-03-02T00:18:30;102520.25;;;1.33;100.00
29549;BME280;16487;53.094;8.800;2023-03-02T00:20:58;102529.47;;;1.29;100.00
29549;BME280;16487;53.094;8.800;2023-03-02T00:23:25;102537.31;;;1.18;100.00
29549;BME280;16487;53.094;8.800;2023-03-02T00:25:54;102543.16;;;1.16;100.00
29549;BME280;16487;53.094;8.800;2023-03-02T00:28:21;102551.44;;;1.08;100.00
29549;BME280;16487;53.094;8.800;2023-03-02T00:30:48;102564.06;;;1.09;100.00
29549;BME280;16487;53.094;8.800;2023-03-02T00:33:16;102574.16;;;1.17;100.00
29549;BME280;16487;53.094;8.800;2023-03-02T00:35:43;102587.63;;;1.10;100.00
29549;BME280;16487;53.094;8.800;2023-03-02T00:38:11;102592.84;;;1.03;100.00
29549;BME280;16487;53.094;8.800;2023-03-02T00:40:43;102623.22;;;0.98;100.00
29549;BME280;16487;53.094;8.800;2023-03-02T00:43:12;102630.59;;;1.06;100.00
29549;BME280;16487;53.094;8.800;2023-03-02T00:45:39;102636.75;;;1.03;100.00
29549;BME280;16487;53.094;8.800;2023-03-02T00:48:08;102643.81;;;1.12;100.00
29549;BME280;16487;53.094;8.800;2023-03-02T00:50:36;102648.03;;;1.10;100.00
29549;BME280;16487;53.094;8.800;2023-03-02T00:53:04;102672.63;;;0.98;100.00
29549;BME280;16487;53.094;8.800;2023-03-02T00:55:31;102687.66;;;0.92;100.00
29549;BME280;16487;53.094;8.800;2023-03-02T00:57:59;102702.06;;;0.89;100.00
29549;BME280;16487;53.094;8.800;2023-03-02T01:00:31;102720.16;;;0.90;100.00
29549;BME280;16487;53.094;8.800;2023-03-02T01:03:02;102733.78;;;0.78;100.00
29549;BME280;16487;53.094;8.800;2023-03-02T01:05:30;102744.22;;;0.84;100.00
29549;BME280;16487;53.094;8.800;2023-03-02T01:07:57;102753.44;;;0.80;100.00
29549;BME280;16487;53.094;8.800;2023-03-02T01:10:24;102763.09;;;0.86;100.00
29549;BME280;16487;53.094;8.800;2023-03-02T01:12:52;102772.63;;;0.80;100.00
29549;BME280;16487;53.094;8.800;2023-03-02T01:15:19;102799.28;;;0.79;100.00
29549;BME280;16487;53.094;8.800;2023-03-02T01:17:48;102808.31;;;0.80;100.00
29549;BME280;16487;53.094;8.800;2023-03-02T01:20:15;102821.22;;;0.88;100.00
29549;BME280;16487;53.094;8.800;2023-03-02T01:22:43;102830.88;;;0.94;100.00
29549;BME280;16487;53.094;8.800;2023-03-02T01:25:11;102846.25;;;0.95;100.00
29549;BME280;16487;53.094;8.800;2023-03-02T01:27:39;102863.84;;;0.77;100.00
29549;BME280;16487;53.094;8.800;2023-03-02T01:30:07;102876.75;;;0.76;100.00
29549;BME280;16487;53.094;8.800;2023-03-02T01:32:34;102888.72;;;0.80;100.00
29549;BME280;16487;53.094;8.800;2023-03-02T01:35:04;102908.75;;;0.81;100.00
29549;BME280;16487;53.094;8.800;2023-03-02T01:37:31;102916.66;;;0.74;100.00
29549;BME280;16487;53.094;8.800;2023-03-02T01:39:59;102927.78;;;0.69;100.00
29549;BME280;16487;53.094;8.800;2023-03-02T01:42:33;102940.22;;;0.75;100.00
29549;BME280;16487;53.094;8.800;2023-03-02T01:45:00;102967.66;;;0.83;100.00
29549;BME280;16487;53.094;8.800;2023-03-02T01:47:31;102988.00;;;0.91;100.00
29549;BME280;16487;53.094;8.800;2023-03-02T01:50:17;102994.41;;;0.52;100.00
29549;BME280;16487;53.094;8.800;2023-03-02T01:52:46;103020.09;;;0.65;100.00
29549;BME280;16487;53.094;8.800;2023-03-02T01:55:18;103044.00;;;0.73;100.00
29549;BME280;16487;53.094;8.800;2023-03-02T01:57:50;103059.19;;;0.79;100.00
29549;BME280;16487;53.094;8.800;2023-03-02T02:00:21;103068.88;;;0.85;100.00
29549;BME280;16487;53.094;8.800;2023-03-02T02:02:50;103075.69;;;0.96;100.00
29549;BME280;16487;53.094;8.800;2023-03-02T02:05:24;103090.41;;;1.00;100.00
29549;BME280;16487;53.094;8.800;2023-03-02T02:07:52;103104.13;;;1.00;100.00
29549;BME280;16487;53.094;8.800;2023-03-02T02:10:19;103097.81;;;0.99;100.00
29549;BME280;16487;53.094;8.800;2023-03-02T02:12:47;103099.91;;;0.94;100.00
29549;BME280;16487;53.094;8.800;2023-03-02T02:15:14;103107.97;;;0.82;100.00
29549;BME280;16487;53.094;8.800;2023-03-02T02:17:42;103120.84;;;0.73;100.00
29549;BME280;16487;53.094;8.800;2023-03-02T02:20:16;103125.72;;;0.76;100.00
29549;BME280;16487;53.094;8.800;2023-03-02T02:23:00;103125.72;;;0.76;100.00
29549;BME280;16487;53.094;8.800;2023-03-02T02:25:41;103133.31;;;0.79;100.00
29549;BME280;16487;53.094;8.800;2023-03-02T02:28:15;103128.81;;;0.83;100.00
29549;BME280;16487;53.094;8.800;2023-03-02T02:30:46;103140.19;;;0.68;100.00
29549;BME280;16487;53.094;8.800;2023-03-02T02:33:19;103150.84;;;0.69;100.00
29549;BME280;16487;53.094;8.800;2023-03-02T02:35:48;103156.31;;;0.61;100.00
29549;BME280;16487;53.094;8.800;2023-03-02T02:38:20;103156.81;;;0.63;100.00
29549;BME280;16487;53.094;8.800;2023-03-02T02:40:52;103158.84;;;0.49;100.00
29549;BME280;16487;53.094;8.800;2023-03-02T02:43:27;103163.72;;;0.52;100.00
29549;BME280;16487;53.094;8.800;2023-03-02T02:45:57;103176.94;;;0.50;100.00
29549;BME280;16487;53.094;8.800;2023-03-02T02:48:26;103187.72;;;0.46;100.00
29549;BME280;16487;53.094;8.800;2023-03-02T02:50:54;103201.75;;;0.45;100.00
29549;BME280;16487;53.094;8.800;2023-03-02T02:53:27;103202.31;;;0.55;100.00
29549;BME280;16487;53.094;8.800;2023-03-02T02:55:57;103206.84;;;0.60;100.00
29549;BME280;16487;53.094;8.800;2023-03-02T02:58:32;103205.00;;;0.47;100.00
29549;BME280;16487;53.094;8.800;2023-03-02T03:01:01;103223.16;;;0.34;100.00
29549;BME280;16487;53.094;8.800;2023-03-02T03:03:32;103234.75;;;0.31;100.00
29549;BME280;16487;53.094;8.800;2023-03-02T03:06:05;103240.59;;;0.16;100.00
29549;BME280;16487;53.094;8.800;2023-03-02T03:08:58;103256.50;;;0.28;100.00
29549;BME280;16487;53.094;8.800;2023-03-02T03:11:37;103257.50;;;0.32;100.00
29549;BME280;16487;53.094;8.800;2023-03-02T03:14:09;103270.22;;;0.28;100.00
29549;BME280;16487;53.094;8.800;2023-03-02T03:16:39;103269.59;;;0.31;100.00
29549;BME280;16487;53.094;8.800;2023-03-02T03:19:12;103276.81;;;0.27;100.00
29549;BME280;16487;53.094;8.800;2023-03-02T03:21:42;103280.44;;;0.14;100.00
29549;BME280;16487;53.094;8.800;2023-03-02T03:24:09;103294.81;;;0.19;100.00
29549;BME280;16487;53.094;8.800;2023-03-02T03:26:37;103312.28;;;0.23;100.00
29549;BME280;16487;53.094;8.800;2023-03-02T03:29:05;103325.34;;;0.26;100.00
29549;BME280;16487;53.094;8.800;2023-03-02T03:31:34;103345.63;;;0.39;100.00
29549;BME280;16487;53.094;8.800;2023-03-02T03:34:02;103344.94;;;0.33;100.00
29549;BME280;16487;53.094;8.800;2023-03-02T03:36:34;103350.94;;;0.35;100.00
29549;BME280;16487;53.094;8.800;2023-03-02T03:39:04;103370.69;;;0.24;100.00
29549;BME280;16487;53.094;8.800;2023-03-02T03:41:32;103365.19;;;0.24;100.00
29549;BME280;16487;53.094;8.800;2023-03-02T03:44:00;103369.47;;;0.16;100.00
29549;BME280;16487;53.094;8.800;2023-03-02T03:46:30;103381.88;;;0.14;100.00
29549;BME280;16487;53.094;8.800;2023-03-02T03:48:59;103387.25;;;0.19;100.00
29549;BME280;16487;53.094;8.800;2023-03-02T03:51:27;103399.31;;;0.18;100.00
29549;BME280;16487;53.094;8.800;2023-03-02T03:53:55;103407.44;;;0.23;100.00
29549;BME280;16487;53.094;8.800;2023-03-02T03:56:22;103413.31;;;0.30;100.00
29549;BME280;16487;53.094;8.800;2023-03-02T03:58:49;103425.41;;;0.29;100.00
29549;BME280;16487;53.094;8.800;2023-03-02T04:01:17;103423.88;;;0.23;100.00
29549;BME280;16487;53.094;8.800;2023-03-02T04:03:44;103443.19;;;0.31;100.00
29549;BME280;16487;53.094;8.800;2023-03-02T04:06:13;103443.16;;;0.45;100.00
29549;BME280;16487;53.094;8.800;2023-03-02T04:08:41;103455.66;;;0.37;100.00
29549;BME280;16487;53.094;8.800;2023-03-02T04:11:08;103453.34;;;0.31;100.00
29549;BME280;16487;53.094;8.800;2023-03-02T04:13:35;103463.69;;;0.34;100.00
29549;BME280;16487;53.094;8.800;2023-03-02T04:16:03;103472.44;;;0.36;100.00
29549;BME280;16487;53.094;8.800;2023-03-02T04:18:30;103476.28;;;0.35;100.00
29549;BME280;16487;53.094;8.800;2023-03-02T04:20:58;103475.69;;;0.38;100.00
29549;BME280;16487;53.094;8.800;2023-03-02T04:23:26;103477.59;;;0.37;100.00
29549;BME280;16487;53.094;8.800;2023-03-02T04:25:54;103479.03;;;0.35;100.00
29549;BME280;16487;53.094;8.800;2023-03-02T04:28:22;103480.56;;;0.27;100.00
29549;BME280;16487;53.094;8.800;2023-03-02T04:30:50;103480.47;;;0.19;100.00
29549;BME280;16487;53.094;8.800;2023-03-02T04:33:18;103485.06;;;0.10;100.00
29549;BME280;16487;53.094;8.800;2023-03-02T04:35:45;103489.41;;;0.11;100.00
29549;BME280;16487;53.094;8.800;2023-03-02T04:38:13;103495.59;;;0.03;100.00
29549;BME280;16487;53.094;8.800;2023-03-02T04:40:42;103507.59;;;0.07;100.00
29549;BME280;16487;53.094;8.800;2023-03-02T04:43:09;103517.22;;;0.18;100.00
29549;BME280;16487;53.094;8.800;2023-03-02T04:45:37;103513.09;;;0.07;100.00
29549;BME280;16487;53.094;8.800;2023-03-02T04:48:05;103513.19;;;0.02;100.00
29549;BME280;16487;53.094;8.800;2023-03-02T04:50:33;103527.78;;;0.11;100.00
29549;BME280;16487;53.094;8.800;2023-03-02T04:53:00;103541.13;;;0.17;100.00
29549;BME280;16487;53.094;8.800;2023-03-02T04:55:27;103546.00;;;0.20;100.00
29549;BME280;16487;53.094;8.800;2023-03-02T04:57:56;103565.06;;;0.12;100.00
29549;BME280;16487;53.094;8.800;2023-03-02T05:00:24;103579.41;;;0.22;100.00
29549;BME280;16487;53.094;8.800;2023-03-02T05:02:51;103597.16;;;0.25;100.00
29549;BME280;16487;53.094;8.800;2023-03-02T05:05:21;103610.38;;;0.23;100.00
29549;BME280;16487;53.094;8.800;2023-03-02T05:07:50;103628.56;;;0.19;100.00
29549;BME280;16487;53.094;8.800;2023-03-02T05:10:18;103631.22;;;0.24;100.00
29549;BME280;16487;53.094;8.800;2023-03-02T05:12:45;103658.13;;;0.35;100.00
29549;BME280;16487;53.094;8.800;2023-03-02T05:15:14;103684.16;;;0.38;100.00
29549;BME280;16487;53.094;8.800;2023-03-02T05:17:42;103703.25;;;0.29;100.00
29549;BME280;16487;53.094;8.800;2023-03-02T05:20:10;103711.63;;;0.19;100.00
29549;BME280;16487;53.094;8.800;2023-03-02T05:22:38;103745.28;;;0.25;100.00
29549;BME280;16487;53.094;8.800;2023-03-02T05:25:06;103761.16;;;0.28;100.00
29549;BME280;16487;53.094;8.800;2023-03-02T05:27:33;103777.00;;;0.31;100.00
29549;BME280;16487;53.094;8.800;2023-03-02T05:30:01;103797.22;;;0.35;100.00
29549;BME280;16487;53.094;8.800;2023-03-02T05:32:29;103817.03;;;0.32;100.00
29549;BME280;16487;53.094;8.800;2023-03-02T05:34:57;103829.03;;;0.36;100.00
29549;BME280;16487;53.094;8.800;2023-03-02T05:37:24;103842.38;;;0.24;100.00
29549;BME280;16487;53.094;8.800;2023-03-02T05:39:51;103856.63;;;0.26;100.00
29549;BME280;16487;53.094;8.800;2023-03-02T05:42:19;103876.34;;;0.28;100.00
29549;BME280;16487;53.094;8.800;2023-03-02T05:44:46;103900.50;;;0.26;100.00
29549;BME280;16487;53.094;8.800;2023-03-02T05:47:13;103921.84;;;0.29;100.00
29549;BME280;16487;53.094;8.800;2023-03-02T05:49:42;103918.44;;;0.18;100.00
29549;BME280;16487;53.094;8.800;2023-03-02T05:52:09;103927.63;;;0.09;100.00
29549;BME280;16487;53.094;8.800;2023-03-02T05:54:36;103947.22;;;0.21;100.00
29549;BME280;16487;53.094;8.800;2023-03-02T05:57:04;103956.06;;;0.13;100.00
29549;BME280;16487;53.094;8.800;2023-03-02T05:59:31;103971.59;;;0.22;100.00
29549;BME280;16487;53.094;8.800;2023-03-02T06:01:58;103968.22;;;0.07;100.00
29549;BME280;16487;53.094;8.800;2023-03-02T06:04:26;103993.91;;;0.16;100.00
29549;BME280;16487;53.094;8.800;2023-03-02T06:06:55;103995.72;;;0.02;100.00
29549;BME280;16487;53.094;8.800;2023-03-02T06:09:22;104001.81;;;-0.07;100.00
29549;BME280;16487;53.094;8.800;2023-03-02T06:11:49;104022.00;;;0.03;100.00
29549;BME280;16487;53.094;8.800;2023-03-02T06:14:16;104031.28;;;0.07;100.00
29549;BME280;16487;53.094;8.800;2023-03-02T06:16:44;104054.25;;;0.11;100.00
29549;BME280;16487;53.094;8.800;2023-03-02T06:19:11;104067.19;;;0.10;100.00
29549;BME280;16487;53.094;8.800;2023-03-02T06:21:38;104074.28;;;0.11;100.00
29549;BME280;16487;53.094;8.800;2023-03-02T06:24:07;104086.38;;;0.10;100.00
29549;BME280;16487;53.094;8.800;2023-03-02T06:26:35;104092.72;;;0.06;100.00
29549;BME280;16487;53.094;8.800;2023-03-02T06:29:02;104106.47;;;0.00;100.00
29549;BME280;16487;53.094;8.800;2023-03-02T06:31:29;104123.41;;;0.08;100.00
29549;BME280;16487;53.094;8.800;2023-03-02T06:33:57;104140.09;;;0.11;100.00
29549;BME280;16487;53.094;8.800;2023-03-02T06:36:24;104160.91;;;0.17;100.00
29549;BME280;16487;53.094;8.800;2023-03-02T06:38:51;104167.38;;;-0.03;100.00
29549;BME280;16487;53.094;8.800;2023-03-02T06:41:20;104177.66;;;0.11;100.00
29549;BME280;16487;53.094;8.800;2023-03-02T06:43:47;104196.78;;;0.21;100.00
29549;BME280;16487;53.094;8.800;2023-03-02T06:46:15;104202.94;;;0.08;100.00
29549;BME280;16487;53.094;8.800;2023-03-02T06:48:42;104215.31;;;0.34;100.00
29549;BME280;16487;53.094;8.800;2023-03-02T06:51:09;104225.22;;;0.30;100.00
29549;BME280;16487;53.094;8.800;2023-03-02T06:53:37;104234.47;;;0.39;100.00
29549;BME280;16487;53.094;8.800;2023-03-02T06:56:05;104246.03;;;0.36;100.00
29549;BME280;16487;53.094;8.800;2023-03-02T06:58:34;104243.91;;;0.28;100.00
29549;BME280;16487;53.094;8.800;2023-03-02T07:01:02;104259.69;;;0.41;100.00
29549;BME280;16487;53.094;8.800;2023-03-02T07:03:29;104261.91;;;0.39;100.00
29549;BME280;16487;53.094;8.800;2023-03-02T07:05:57;104264.59;;;0.44;100.00
29549;BME280;16487;53.094;8.800;2023-03-02T07:08:24;104266.56;;;0.38;100.00
29549;BME280;16487;53.094;8.800;2023-03-02T07:10:51;104270.09;;;0.44;100.00
29549;BME280;16487;53.094;8.800;2023-03-02T07:13:18;104274.28;;;0.36;100.00
29549;BME280;16487;53.094;8.800;2023-03-02T07:15:47;104260.38;;;0.23;100.00
29549;BME280;16487;53.094;8.800;2023-03-02T07:18:15;104268.31;;;0.29;100.00
29549;BME280;16487;53.094;8.800;2023-03-02T07:20:42;104277.06;;;0.31;100.00
29549;BME280;16487;53.094;8.800;2023-03-02T07:23:09;104288.84;;;0.32;100.00
29549;BME280;16487;53.094;8.800;2023-03-02T07:25:37;104294.25;;;0.42;100.00
29549;BME280;16487;53.094;8.800;2023-03-02T07:28:05;104295.91;;;0.43;100.00
29549;BME280;16487;53.094;8.800;2023-03-02T07:30:32;104305.63;;;0.59;100.00
29549;BME280;16487;53.094;8.800;2023-03-02T07:33:01;104308.34;;;0.64;100.00
29549;BME280;16487;53.094;8.800;2023-03-02T07:35:28;104306.78;;;0.53;100.00
29549;BME280;16487;53.094;8.800;2023-03-02T07:37:56;104308.25;;;0.74;100.00
29549;BME280;16487;53.094;8.800;2023-03-02T07:40:27;104297.34;;;0.64;100.00
29549;BME280;16487;53.094;8.800;2023-03-02T07:42:55;104296.72;;;0.72;100.00
29549;BME280;16487;53.094;8.800;2023-03-02T07:45:22;104281.38;;;0.71;100.00
29549;BME280;16487;53.094;8.800;2023-03-02T07:47:49;104278.88;;;0.69;100.00
29549;BME280;16487;53.094;8.800;2023-03-02T07:50:18;104264.97;;;0.61;100.00
29549;BME280;16487;53.094;8.800;2023-03-02T07:52:45;104274.69;;;0.53;100.00
29549;BME280;16487;53.094;8.800;2023-03-02T07:55:13;104280.66;;;0.84;100.00
29549;BME280;16487;53.094;8.800;2023-03-02T07:57:40;104266.53;;;0.72;100.00
29549;BME280;16487;53.094;8.800;2023-03-02T08:00:08;104254.00;;;0.61;100.00
29549;BME280;16487;53.094;8.800;2023-03-02T08:02:39;104258.75;;;0.79;100.00
29549;BME280;16487;53.094;8.800;2023-03-02T08:05:08;104243.97;;;0.75;100.00
29549;BME280;16487;53.094;8.800;2023-03-02T08:07:37;104250.28;;;0.99;100.00
29549;BME280;16487;53.094;8.800;2023-03-02T08:10:05;104223.06;;;0.79;100.00
29549;BME280;16487;53.094;8.800;2023-03-02T08:12:32;104224.00;;;0.93;100.00
29549;BME280;16487;53.094;8.800;2023-03-02T08:15:00;104211.44;;;0.87;100.00
29549;BME280;16487;53.094;8.800;2023-03-02T08:17:30;104199.09;;;1.08;100.00
29549;BME280;16487;53.094;8.800;2023-03-02T08:19:57;104181.13;;;0.97;100.00
29549;BME280;16487;53.094;8.800;2023-03-02T08:22:25;104167.41;;;0.97;100.00
29549;BME280;16487;53.094;8.800;2023-03-02T08:24:53;104136.97;;;0.93;100.00
29549;BME280;16487;53.094;8.800;2023-03-02T08:27:21;104120.13;;;1.00;100.00
29549;BME280;16487;53.094;8.800;2023-03-02T08:29:48;104096.94;;;1.06;100.00
29549;BME280;16487;53.094;8.800;2023-03-02T08:32:15;104070.59;;;1.05;100.00
29549;BME280;16487;53.094;8.800;2023-03-02T08:34:43;104049.81;;;0.99;100.00
29549;BME280;16487;53.094;8.800;2023-03-02T08:37:10;104029.94;;;1.07;100.00
29549;BME280;16487;53.094;8.800;2023-03-02T08:39:37;104002.78;;;1.05;100.00
29549;BME280;16487;53.094;8.800;2023-03-02T08:42:07;103978.75;;;1.11;100.00
29549;BME280;16487;53.094;8.800;2023-03-02T08:44:34;103947.19;;;1.41;100.00
29549;BME280;16487;53.094;8.800;2023-03-02T08:47:01;103908.66;;;1.59;100.00
29549;BME280;16487;53.094;8.800;2023-03-02T08:49:29;103831.38;;;1.34;100.00
29549;BME280;16487;53.094;8.800;2023-03-02T08:51:57;103768.19;;;1.20;100.00
29549;BME280;16487;53.094;8.800;2023-03-02T08:54:25;103708.91;;;1.55;100.00
29549;BME280;16487;53.094;8.800;2023-03-02T08:56:52;103617.22;;;1.15;100.00
29549;BME280;16487;53.094;8.800;2023-03-02T08:59:21;103527.09;;;1.39;100.00
29549;BME280;16487;53.094;8.800;2023-03-02T09:01:48;103406.97;;;1.31;100.00
29549;BME280;16487;53.094;8.800;2023-03-02T09:04:16;103297.78;;;1.45;100.00
29549;BME280;16487;53.094;8.800;2023-03-02T09:06:44;103209.88;;;1.62;100.00
29549;BME280;16487;53.094;8.800;2023-03-02T09:09:13;103136.00;;;1.69;100.00
29549;BME280;16487;53.094;8.800;2023-03-02T09:11:40;103067.03;;;2.00;100.00
29549;BME280;16487;53.094;8.800;2023-03-02T09:14:09;103010.34;;;1.78;100.00
29549;BME280;16487;53.094;8.800;2023-03-02T09:16:38;102971.88;;;1.78;100.00
29549;BME280;16487;53.094;8.800;2023-03-02T09:19:05;102942.16;;;1.63;100.00
29549;BME280;16487;53.094;8.800;2023-03-02T09:21:33;102904.75;;;1.79;100.00
29549;BME280;16487;53.094;8.800;2023-03-02T09:24:01;102873.06;;;1.82;100.00
29549;BME280;16487;53.094;8.800;2023-03-02T09:26:28;102853.47;;;1.83;100.00
29549;BME280;16487;53.094;8.800;2023-03-02T09:28:56;102813.91;;;1.96;100.00
29549;BME280;16487;53.094;8.800;2023-03-02T09:31:23;102803.91;;;1.71;100.00
29549;BME280;16487;53.094;8.800;2023-03-02T09:33:52;102785.97;;;1.65;100.00
29549;BME280;16487;53.094;8.800;2023-03-02T09:36:22;102769.91;;;1.96;100.00
29549;BME280;16487;53.094;8.800;2023-03-02T09:38:50;102745.66;;;1.98;100.00
29549;BME280;16487;53.094;8.800;2023-03-02T09:44:45;102698.81;;;2.07;100.00
29549;BME280;16487;53.094;8.800;2023-03-02T09:47:21;102690.66;;;1.98;100.00
29549;BME280;16487;53.094;8.800;2023-03-02T09:50:14;102666.56;;;2.16;100.00
29549;BME280;16487;53.094;8.800;2023-03-02T09:52:47;102657.53;;;2.27;100.00
29549;BME280;16487;53.094;8.800;2023-03-02T09:55:18;102640.56;;;2.38;100.00
29549;BME280;16487;53.094;8.800;2023-03-02T09:57:48;102630.22;;;2.22;100.00
29549;BME280;16487;53.094;8.800;2023-03-02T10:00:24;102624.94;;;2.17;100.00
29549;BME280;16487;53.094;8.800;2023-03-02T10:02:54;102606.91;;;2.77;100.00
29549;BME280;16487;53.094;8.800;2023-03-02T10:05:36;102586.59;;;2.81;100.00
29549;BME280;16487;53.094;8.800;2023-03-02T10:08:04;102569.72;;;2.71;100.00
29549;BME280;16487;53.094;8.800;2023-03-02T10:10:38;102556.28;;;2.93;100.00
29549;BME280;16487;53.094;8.800;2023-03-02T10:13:19;102533.66;;;3.00;100.00
29549;BME280;16487;53.094;8.800;2023-03-02T10:16:04;102519.22;;;3.03;100.00
29549;BME280;16487;53.094;8.800;2023-03-02T10:18:37;102497.22;;;2.91;100.00
29549;BME280;16487;53.094;8.800;2023-03-02T10:21:12;102493.03;;;2.97;100.00
29549;BME280;16487;53.094;8.800;2023-03-02T10:23:48;102472.38;;;3.03;100.00
29549;BME280;16487;53.094;8.800;2023-03-02T10:26:25;102466.69;;;2.96;100.00
29549;BME280;16487;53.094;8.800;2023-03-02T10:28:59;102453.06;;;3.15;100.00
29549;BME280;16487;53.094;8.800;2023-03-02T10:31:28;102426.72;;;3.45;100.00
29549;BME280;16487;53.094;8.800;2023-03-02T10:33:57;102400.84;;;3.34;100.00
29549;BME280;16487;53.094;8.800;2023-03-02T10:36:28;102386.69;;;3.20;100.00
29549;BME280;16487;53.094;8.800;2023-03-02T10:38:56;102372.19;;;3.23;100.00
29549;BME280;16487;53.094;8.800;2023-03-02T10:41:27;102373.81;;;2.96;100.00
29549;BME280;16487;53.094;8.800;2023-03-02T10:43:59;102363.81;;;3.04;100.00
29549;BME280;16487;53.094;8.800;2023-03-02T10:46:38;102360.72;;;2.78;100.00
29549;BME280;16487;53.094;8.800;2023-03-02T10:49:22;102343.75;;;3.19;100.00
29549;BME280;16487;53.094;8.800;2023-03-02T10:51:59;102330.50;;;3.09;100.00
29549;BME280;16487;53.094;8.800;2023-03-02T10:54:27;102311.59;;;3.23;100.00
29549;BME280;16487;53.094;8.800;2023-03-02T10:56:57;102311.94;;;3.06;100.00
29549;BME280;16487;53.094;8.800;2023-03-02T10:59:41;102298.72;;;3.11;100.00
29549;BME280;16487;53.094;8.800;2023-03-02T11:02:16;102283.13;;;3.19;100.00
29549;BME280;16487;53.094;8.800;2023-03-02T11:04:44;102289.88;;;2.90;100.00
29549;BME280;16487;53.094;8.800;2023-03-02T11:07:17;102279.53;;;3.15;100.00
29549;BME280;16487;53.094;8.800;2023-03-02T11:09:58;102270.44;;;3.30;100.00
29549;BME280;16487;53.094;8.800;2023-03-02T11:12:27;102262.38;;;3.06;100.00
29549;BME280;16487;53.094;8.800;2023-03-02T11:15:15;102249.34;;;3.53;100.00
29549;BME280;16487;53.094;8.800;2023-03-02T11:17:43;102245.66;;;3.30;100.00
29549;BME280;16487;53.094;8.800;2023-03-02T11:20:15;102227.59;;;3.48;100.00
29549;BME280;16487;53.094;8.800;2023-03-02T11:22:50;102207.63;;;3.89;100.00
29549;BME280;16487;53.094;8.800;2023-03-02T11:25:25;102203.09;;;3.81;100.00
29549;BME280;16487;53.094;8.800;2023-03-02T11:27:59;102192.28;;;3.73;100.00
29549;BME280;16487;53.094;8.800;2023-03-02T11:30:29;102181.28;;;3.38;100.00
29549;BME280;16487;53.094;8.800;2023-03-02T11:33:04;102185.44;;;3.47;100.00
29549;BME280;16487;53.094;8.800;2023-03-02T11:35:39;102181.19;;;4.07;100.00
29549;BME280;16487;53.094;8.800;2023-03-02T11:38:18;102146.03;;;4.23;100.00
29549;BME280;16487;53.094;8.800;2023-03-02T11:40:50;102137.91;;;3.35;100.00
29549;BME280;16487;53.094;8.800;2023-03-02T11:43:21;102145.78;;;3.71;100.00
29549;BME280;16487;53.094;8.800;2023-03-02T11:45:54;102148.09;;;3.69;100.00
29549;BME280;16487;53.094;8.800;2023-03-02T11:48:25;102144.16;;;3.32;100.00
29549;BME280;16487;53.094;8.800;2023-03-02T11:50:57;102146.31;;;3.23;100.00
29549;BME280;16487;53.094;8.800;2023-03-02T11:53:30;102150.13;;;3.53;100.00
29549;BME280;16487;53.094;8.800;2023-03-02T11:56:00;102143.25;;;3.63;100.00
29549;BME280;16487;53.094;8.800;2023-03-02T11:58:29;102141.16;;;3.75;100.00
29549;BME280;16487;53.094;8.800;2023-03-02T12:00:57;102132.72;;;4.06;100.00
29549;BME280;16487;53.094;8.800;2023-03-02T12:03:37;102112.78;;;3.75;100.00
29549;BME280;16487;53.094;8.800;2023-03-02T12:06:07;102115.22;;;3.61;100.00
29549;BME280;16487;53.094;8.800;2023-03-02T12:08:38;102114.38;;;3.57;100.00
29549;BME280;16487;53.094;8.800;2023-03-02T12:11:31;102107.31;;;3.40;100.00
29549;BME280;16487;53.094;8.800;2023-03-02T12:14:00;102121.91;;;3.60;100.00
29549;BME280;16487;53.094;8.800;2023-03-02T12:16:34;102122.00;;;3.63;100.00
29549;BME280;16487;53.094;8.800;2023-03-02T12:19:12;102121.56;;;3.80;100.00
29549;BME280;16487;53.094;8.800;2023-03-02T12:21:41;102105.22;;;3.53;100.00
29549;BME280;16487;53.094;8.800;2023-03-02T12:24:24;102109.28;;;3.78;100.00
29549;BME280;16487;53.094;8.800;2023-03-02T12:27:00;102101.28;;;3.92;100.00
29549;BME280;16487;53.094;8.800;2023-03-02T12:29:38;102086.44;;;4.41;100.00
29549;BME280;16487;53.094;8.800;2023-03-02T12:32:12;102061.09;;;4.58;100.00
29549;BME280;16487;53.094;8.800;2023-03-02T12:34:52;102054.41;;;4.14;100.00
29549;BME280;16487;53.094;8.800;2023-03-02T12:37:24;102047.88;;;4.45;100.00
29549;BME280;16487;53.094;8.800;2023-03-02T12:46:28;102033.94;;;4.38;100.00
29549;BME280;16487;53.094;8.800;2023-03-02T12:51:58;101999.88;;;5.09;100.00
29549;BME280;16487;53.094;8.800;2023-03-02T12:54:28;101975.25;;;4.97;100.00
29549;BME280;16487;53.094;8.800;2023-03-02T12:57:06;101967.44;;;4.46;100.00
29549;BME280;16487;53.094;8.800;2023-03-02T12:59:34;101961.22;;;4.79;100.00
29549;BME280;16487;53.094;8.800;2023-03-02T13:02:13;101955.50;;;4.95;100.00
29549;BME280;16487;53.094;8.800;2023-03-02T13:04:41;101943.03;;;4.78;100.00
29549;BME280;16487;53.094;8.800;2023-03-02T13:07:16;101941.25;;;4.93;100.00
29549;BME280;16487;53.094;8.800;2023-03-02T13:09:48;101918.34;;;4.92;100.00
29549;BME280;16487;53.094;8.800;2023-03-02T13:12:26;101911.38;;;5.02;100.00
29549;BME280;16487;53.094;8.800;2023-03-02T13:14:56;101907.00;;;4.67;100.00
29549;BME280;16487;53.094;8.800;2023-03-02T13:17:26;101916.78;;;4.91;100.00